KLRU/LRU METAR and TAF weather

Enter ICAO airport designator
Station Type Date Time Source
KLRU METAR 2019/10/15 08:35 UTC NOAA

KLRU 150835Z AUTO 00000KT 10SM CLR 12/12 A3009 RMK AO2 T01240124


Station Type Date Time Source
KLRU Decoded METAR 2019/10/15 08:35 UTC NOAA

Las Cruces, Las Cruces International Airport, NM, United States (KLRU) 32-17-22N 106-55-19W
Oct 15, 2019 - 04:35 AM EDT / 2019.10.15 0835 UTC
Wind: Calm:0
Visibility: 10 mile(s):0
Sky conditions: clear
Temperature: 54.3 F (12.4 C)
Dew Point: 54.3 F (12.4 C)
Relative Humidity: 100%
Pressure (altimeter): 30.09 in. Hg (1018 hPa)
ob: KLRU 150835Z AUTO 00000KT 10SM CLR 12/12 A3009 RMK AO2 T01240124
cycle: 8

Station Type Date Time Source
KLRU TAF 2019/10/15 06:42 UTC NOAA

TAF KLRU 150538Z 1506/1606 VRB05KT P6SM SKC
FM151000 VRB04KT P6SM SCT060
FM160400 06008KT P6SM SKC

Example: see airport list